sensor_id;sensor_type;location;lat;lon;timestamp;pressure;altitude;pressure_sealevel;temperature;humidity
69173;BME280;56280;49.662;8.408;2022-07-23T00:01:54;100618.94;;;20.77;76.50
69173;BME280;56280;49.662;8.408;2022-07-23T00:04:19;100616.72;;;20.66;75.93
69173;BME280;56280;49.662;8.408;2022-07-23T00:06:45;100614.34;;;20.63;75.55
69173;BME280;56280;49.662;8.408;2022-07-23T00:09:10;100621.03;;;20.82;72.80
69173;BME280;56280;49.662;8.408;2022-07-23T00:11:35;100620.66;;;20.85;73.57
69173;BME280;56280;49.662;8.408;2022-07-23T00:14:00;100624.69;;;20.89;74.47
69173;BME280;56280;49.662;8.408;2022-07-23T00:16:26;100612.31;;;20.80;75.07
69173;BME280;56280;49.662;8.408;2022-07-23T00:18:51;100617.81;;;20.71;76.58
69173;BME280;56280;49.662;8.408;2022-07-23T00:21:16;100611.66;;;20.63;76.19
69173;BME280;56280;49.662;8.408;2022-07-23T00:23:42;100583.94;;;20.39;76.65
69173;BME280;56280;49.662;8.408;2022-07-23T00:26:07;100589.59;;;20.29;76.69
69173;BME280;56280;49.662;8.408;2022-07-23T00:28:33;100554.63;;;20.21;77.50
69173;BME280;56280;49.662;8.408;2022-07-23T00:30:58;100537.78;;;20.04;76.79
69173;BME280;56280;49.662;8.408;2022-07-23T00:33:23;100542.53;;;20.17;77.39
69173;BME280;56280;49.662;8.408;2022-07-23T00:35:49;100548.41;;;20.35;75.47
69173;BME280;56280;49.662;8.408;2022-07-23T00:38:14;100542.16;;;20.50;76.21
69173;BME280;56280;49.662;8.408;2022-07-23T00:40:40;100538.13;;;20.46;74.88
69173;BME280;56280;49.662;8.408;2022-07-23T00:43:05;100540.75;;;20.69;74.47
69173;BME280;56280;49.662;8.408;2022-07-23T00:45:31;100578.41;;;20.92;74.47
69173;BME280;56280;49.662;8.408;2022-07-23T00:47:57;100575.78;;;20.99;73.58
69173;BME280;56280;49.662;8.408;2022-07-23T00:50:23;100522.97;;;20.59;72.73
69173;BME280;56280;49.662;8.408;2022-07-23T00:52:48;100583.59;;;20.93;72.00
69173;BME280;56280;49.662;8.408;2022-07-23T00:55:14;100613.50;;;20.92;73.24
69173;BME280;56280;49.662;8.408;2022-07-23T00:57:41;100633.22;;;20.92;72.67
69173;BME280;56280;49.662;8.408;2022-07-23T01:00:09;100616.94;;;20.86;71.71
69173;BME280;56280;49.662;8.408;2022-07-23T01:02:35;100625.59;;;20.96;71.37
69173;BME280;56280;49.662;8.408;2022-07-23T01:05:01;100623.19;;;21.01;70.29
69173;BME280;56280;49.662;8.408;2022-07-23T01:07:28;100622.50;;;20.99;69.66
69173;BME280;56280;49.662;8.408;2022-07-23T01:09:54;100614.59;;;20.98;70.11
69173;BME280;56280;49.662;8.408;2022-07-23T01:12:19;100587.28;;;20.71;70.53
69173;BME280;56280;49.662;8.408;2022-07-23T01:14:45;100582.63;;;20.50;70.90
69173;BME280;56280;49.662;8.408;2022-07-23T01:17:10;100598.00;;;20.64;71.25
69173;BME280;56280;49.662;8.408;2022-07-23T01:19:35;100592.09;;;20.61;71.50
69173;BME280;56280;49.662;8.408;2022-07-23T01:22:02;100583.47;;;20.50;72.05
69173;BME280;56280;49.662;8.408;2022-07-23T01:24:28;100593.69;;;20.55;71.04
69173;BME280;56280;49.662;8.408;2022-07-23T01:26:53;100596.03;;;20.73;70.77
69173;BME280;56280;49.662;8.408;2022-07-23T01:29:19;100591.19;;;20.68;71.61
69173;BME280;56280;49.662;8.408;2022-07-23T01:31:46;100532.41;;;20.34;72.97
69173;BME280;56280;49.662;8.408;2022-07-23T01:34:11;100531.00;;;20.23;74.41
69173;BME280;56280;49.662;8.408;2022-07-23T01:36:37;100583.56;;;20.42;74.64
69173;BME280;56280;49.662;8.408;2022-07-23T01:39:04;100583.91;;;20.54;74.04
69173;BME280;56280;49.662;8.408;2022-07-23T01:41:30;100569.84;;;20.73;72.22
69173;BME280;56280;49.662;8.408;2022-07-23T01:43:55;100576.88;;;21.04;69.77
69173;BME280;56280;49.662;8.408;2022-07-23T01:46:20;100594.09;;;21.03;70.17
69173;BME280;56280;49.662;8.408;2022-07-23T01:48:46;100610.44;;;21.17;70.28
69173;BME280;56280;49.662;8.408;2022-07-23T01:51:11;100617.09;;;21.14;70.16
69173;BME280;56280;49.662;8.408;2022-07-23T01:53:37;100618.53;;;20.95;71.98
69173;BME280;56280;49.662;8.408;2022-07-23T01:56:02;100614.25;;;20.86;73.83
69173;BME280;56280;49.662;8.408;2022-07-23T01:58:28;100612.88;;;20.75;74.86
69173;BME280;56280;49.662;8.408;2022-07-23T02:00:54;100617.78;;;20.56;74.99
69173;BME280;56280;49.662;8.408;2022-07-23T02:03:20;100629.59;;;20.40;75.56
69173;BME280;56280;49.662;8.408;2022-07-23T02:05:46;100611.38;;;20.13;76.75
69173;BME280;56280;49.662;8.408;2022-07-23T02:08:11;100598.97;;;20.03;76.93
69173;BME280;56280;49.662;8.408;2022-07-23T02:10:37;100600.66;;;20.19;75.48
69173;BME280;56280;49.662;8.408;2022-07-23T02:13:02;100608.56;;;20.21;75.65
69173;BME280;56280;49.662;8.408;2022-07-23T02:15:27;100583.53;;;19.97;76.23
69173;BME280;56280;49.662;8.408;2022-07-23T02:17:54;100604.38;;;20.03;76.76
69173;BME280;56280;49.662;8.408;2022-07-23T02:20:19;100595.22;;;19.90;77.36
69173;BME280;56280;49.662;8.408;2022-07-23T02:22:44;100599.06;;;19.95;77.63
69173;BME280;56280;49.662;8.408;2022-07-23T02:25:10;100597.56;;;19.93;77.75
69173;BME280;56280;49.662;8.408;2022-07-23T02:27:36;100582.38;;;19.77;78.16
69173;BME280;56280;49.662;8.408;2022-07-23T02:30:01;100568.28;;;19.66;79.00
69173;BME280;56280;49.662;8.408;2022-07-23T02:32:27;100571.63;;;19.68;78.71
69173;BME280;56280;49.662;8.408;2022-07-23T02:34:52;100561.75;;;19.61;79.89
69173;BME280;56280;49.662;8.408;2022-07-23T02:37:17;100569.97;;;19.67;80.46
69173;BME280;56280;49.662;8.408;2022-07-23T02:39:43;100548.88;;;19.71;80.31
69173;BME280;56280;49.662;8.408;2022-07-23T02:42:08;100563.13;;;19.80;79.76
69173;BME280;56280;49.662;8.408;2022-07-23T02:44:34;100581.84;;;19.58;81.05
69173;BME280;56280;49.662;8.408;2022-07-23T02:46:59;100601.59;;;19.50;81.61
69173;BME280;56280;49.662;8.408;2022-07-23T02:49:24;100613.09;;;19.67;81.10
69173;BME280;56280;49.662;8.408;2022-07-23T02:51:50;100617.22;;;19.55;81.23
69173;BME280;56280;49.662;8.408;2022-07-23T02:54:15;100629.88;;;19.55;82.43
69173;BME280;56280;49.662;8.408;2022-07-23T02:56:40;100632.13;;;19.66;81.55
69173;BME280;56280;49.662;8.408;2022-07-23T02:59:06;100620.81;;;19.47;81.26
69173;BME280;56280;49.662;8.408;2022-07-23T03:01:31;100623.97;;;19.51;82.01
69173;BME280;56280;49.662;8.408;2022-07-23T03:03:56;100624.34;;;19.48;82.42
69173;BME280;56280;49.662;8.408;2022-07-23T03:06:22;100625.31;;;19.55;81.68
69173;BME280;56280;49.662;8.408;2022-07-23T03:08:47;100657.28;;;19.81;80.64
69173;BME280;56280;49.662;8.408;2022-07-23T03:11:12;100645.44;;;19.67;80.79
69173;BME280;56280;49.662;8.408;2022-07-23T03:13:38;100652.72;;;19.59;81.41
69173;BME280;56280;49.662;8.408;2022-07-23T03:16:04;100657.41;;;19.88;80.48
69173;BME280;56280;49.662;8.408;2022-07-23T03:18:29;100655.78;;;20.02;79.44
69173;BME280;56280;49.662;8.408;2022-07-23T03:20:55;100637.75;;;20.02;78.61
69173;BME280;56280;49.662;8.408;2022-07-23T03:23:20;100654.16;;;20.16;78.58
69173;BME280;56280;49.662;8.408;2022-07-23T03:25:45;100654.50;;;20.13;78.69
69173;BME280;56280;49.662;8.408;2022-07-23T03:28:14;100668.19;;;20.11;78.70
69173;BME280;56280;49.662;8.408;2022-07-23T03:30:40;100654.50;;;20.13;78.67
69173;BME280;56280;49.662;8.408;2022-07-23T03:33:06;100661.38;;;20.15;78.81
69173;BME280;56280;49.662;8.408;2022-07-23T03:35:31;100650.50;;;20.09;78.70
69173;BME280;56280;49.662;8.408;2022-07-23T03:37:56;100659.03;;;20.12;78.42
69173;BME280;56280;49.662;8.408;2022-07-23T03:40:21;100654.97;;;20.16;79.07
69173;BME280;56280;49.662;8.408;2022-07-23T03:42:47;100651.91;;;20.19;79.04
69173;BME280;56280;49.662;8.408;2022-07-23T03:45:12;100652.56;;;20.21;79.10
69173;BME280;56280;49.662;8.408;2022-07-23T03:47:37;100646.88;;;20.16;79.22
69173;BME280;56280;49.662;8.408;2022-07-23T03:50:04;100656.66;;;20.17;79.73
69173;BME280;56280;49.662;8.408;2022-07-23T03:52:29;100651.81;;;20.13;80.16
69173;BME280;56280;49.662;8.408;2022-07-23T03:54:55;100667.53;;;19.86;82.53
69173;BME280;56280;49.662;8.408;2022-07-23T03:57:20;100668.44;;;19.78;83.54
69173;BME280;56280;49.662;8.408;2022-07-23T03:59:45;100666.44;;;19.72;83.55
69173;BME280;56280;49.662;8.408;2022-07-23T04:02:10;100667.44;;;19.79;83.29
69173;BME280;56280;49.662;8.408;2022-07-23T04:04:36;100648.47;;;19.64;83.79
69173;BME280;56280;49.662;8.408;2022-07-23T04:07:01;100666.13;;;19.67;84.16
69173;BME280;56280;49.662;8.408;2022-07-23T04:09:26;100633.44;;;19.47;84.53
69173;BME280;56280;49.662;8.408;2022-07-23T04:11:51;100667.34;;;19.64;84.96
69173;BME280;56280;49.662;8.408;2022-07-23T04:14:17;100658.53;;;19.47;85.49
69173;BME280;56280;49.662;8.408;2022-07-23T04:16:42;100633.25;;;19.25;85.58
69173;BME280;56280;49.662;8.408;2022-07-23T04:19:08;100677.44;;;19.39;86.45
69173;BME280;56280;49.662;8.408;2022-07-23T04:21:33;100680.91;;;19.48;86.19
69173;BME280;56280;49.662;8.408;2022-07-23T04:23:58;100704.44;;;19.54;85.86
69173;BME280;56280;49.662;8.408;2022-07-23T04:26:23;100727.81;;;19.62;85.54
69173;BME280;56280;49.662;8.408;2022-07-23T04:28:49;100714.53;;;19.60;85.73
69173;BME280;56280;49.662;8.408;2022-07-23T04:31:14;100710.53;;;19.56;84.78
69173;BME280;56280;49.662;8.408;2022-07-23T04:33:39;100734.91;;;19.63;85.43
69173;BME280;56280;49.662;8.408;2022-07-23T04:36:05;100734.44;;;19.51;85.59
69173;BME280;56280;49.662;8.408;2022-07-23T04:38:30;100751.78;;;19.57;85.84
69173;BME280;56280;49.662;8.408;2022-07-23T04:40:55;100757.00;;;19.58;85.33
69173;BME280;56280;49.662;8.408;2022-07-23T04:43:21;100760.28;;;19.68;85.37
69173;BME280;56280;49.662;8.408;2022-07-23T04:45:46;100723.78;;;19.66;87.37
69173;BME280;56280;49.662;8.408;2022-07-23T04:48:11;100697.00;;;19.33;88.45
69173;BME280;56280;49.662;8.408;2022-07-23T04:50:37;100718.72;;;19.00;91.54
69173;BME280;56280;49.662;8.408;2022-07-23T04:53:02;100720.25;;;18.78;93.04
69173;BME280;56280;49.662;8.408;2022-07-23T04:55:28;100731.00;;;18.94;93.26
69173;BME280;56280;49.662;8.408;2022-07-23T04:57:53;100729.53;;;18.84;92.87
69173;BME280;56280;49.662;8.408;2022-07-23T05:00:18;100735.91;;;18.91;93.50
69173;BME280;56280;49.662;8.408;2022-07-23T05:02:43;100753.47;;;19.18;92.72
69173;BME280;56280;49.662;8.408;2022-07-23T05:05:09;100750.44;;;19.21;92.16
69173;BME280;56280;49.662;8.408;2022-07-23T05:07:34;100748.59;;;19.13;91.91
69173;BME280;56280;49.662;8.408;2022-07-23T05:09:59;100746.47;;;19.01;92.08
69173;BME280;56280;49.662;8.408;2022-07-23T05:12:25;100783.06;;;19.26;92.08
69173;BME280;56280;49.662;8.408;2022-07-23T05:14:50;100803.75;;;19.34;91.54
69173;BME280;56280;49.662;8.408;2022-07-23T05:17:15;100781.03;;;19.28;91.70
69173;BME280;56280;49.662;8.408;2022-07-23T05:19:41;100805.19;;;19.53;91.30
69173;BME280;56280;49.662;8.408;2022-07-23T05:22:06;100792.09;;;19.42;91.03
69173;BME280;56280;49.662;8.408;2022-07-23T05:24:31;100815.97;;;19.53;91.10
69173;BME280;56280;49.662;8.408;2022-07-23T05:26:56;100794.28;;;19.46;91.29
69173;BME280;56280;49.662;8.408;2022-07-23T05:29:22;100798.19;;;19.67;90.93
69173;BME280;56280;49.662;8.408;2022-07-23T05:31:47;100788.28;;;19.67;90.50
69173;BME280;56280;49.662;8.408;2022-07-23T05:34:13;100782.88;;;19.76;89.72
69173;BME280;56280;49.662;8.408;2022-07-23T05:36:38;100777.13;;;19.79;88.33
69173;BME280;56280;49.662;8.408;2022-07-23T05:39:04;100778.81;;;19.40;89.98
69173;BME280;56280;49.662;8.408;2022-07-23T05:41:29;100764.72;;;19.22;91.71
69173;BME280;56280;49.662;8.408;2022-07-23T05:43:55;100762.56;;;19.17;92.88
69173;BME280;56280;49.662;8.408;2022-07-23T05:46:20;100777.41;;;19.13;92.87
69173;BME280;56280;49.662;8.408;2022-07-23T05:48:45;100769.47;;;19.20;93.97
69173;BME280;56280;49.662;8.408;2022-07-23T05:51:19;100770.19;;;19.45;91.64
69173;BME280;56280;49.662;8.408;2022-07-23T05:53:44;100771.16;;;19.21;92.74
69173;BME280;56280;49.662;8.408;2022-07-23T05:56:10;100754.16;;;19.12;94.21
69173;BME280;56280;49.662;8.408;2022-07-23T05:58:35;100767.78;;;19.10;94.45
69173;BME280;56280;49.662;8.408;2022-07-23T06:01:00;100759.34;;;19.22;93.96
69173;BME280;56280;49.662;8.408;2022-07-23T06:03:25;100758.44;;;19.38;92.90
69173;BME280;56280;49.662;8.408;2022-07-23T06:05:51;100745.69;;;19.23;92.85
69173;BME280;56280;49.662;8.408;2022-07-23T06:08:16;100760.59;;;19.42;92.82
69173;BME280;56280;49.662;8.408;2022-07-23T06:10:41;100751.34;;;19.45;92.54
69173;BME280;56280;49.662;8.408;2022-07-23T06:13:07;100756.47;;;19.63;91.24
69173;BME280;56280;49.662;8.408;2022-07-23T06:15:32;100735.19;;;19.76;91.22
69173;BME280;56280;49.662;8.408;2022-07-23T06:17:58;100731.63;;;20.22;89.37
69173;BME280;56280;49.662;8.408;2022-07-23T06:20:23;100764.13;;;20.82;85.45
69173;BME280;56280;49.662;8.408;2022-07-23T06:22:48;100784.28;;;21.24;82.55
69173;BME280;56280;49.662;8.408;2022-07-23T06:25:13;100763.28;;;21.41;82.46
69173;BME280;56280;49.662;8.408;2022-07-23T06:27:39;100778.88;;;21.90;78.42
69173;BME280;56280;49.662;8.408;2022-07-23T06:30:05;100742.69;;;21.91;77.60
69173;BME280;56280;49.662;8.408;2022-07-23T06:32:33;100780.47;;;22.06;77.28
69173;BME280;56280;49.662;8.408;2022-07-23T06:34:58;100732.63;;;21.85;75.69
69173;BME280;56280;49.662;8.408;2022-07-23T06:37:23;100752.72;;;21.97;75.51
69173;BME280;56280;49.662;8.408;2022-07-23T06:39:49;100738.34;;;21.97;74.75
69173;BME280;56280;49.662;8.408;2022-07-23T06:42:14;100799.06;;;22.31;76.43
69173;BME280;56280;49.662;8.408;2022-07-23T06:44:40;100758.66;;;22.29;73.60
69173;BME280;56280;49.662;8.408;2022-07-23T06:47:05;100824.88;;;22.76;73.00
69173;BME280;56280;49.662;8.408;2022-07-23T06:49:30;100802.78;;;22.80;73.38
69173;BME280;56280;49.662;8.408;2022-07-23T06:51:56;100793.03;;;22.85;73.08
69173;BME280;56280;49.662;8.408;2022-07-23T06:54:21;100841.53;;;23.37;71.27
69173;BME280;56280;49.662;8.408;2022-07-23T06:56:46;100828.22;;;23.42;70.65
69173;BME280;56280;49.662;8.408;2022-07-23T06:59:12;100840.03;;;23.76;70.10
69173;BME280;56280;49.662;8.408;2022-07-23T07:01:37;100824.06;;;23.94;68.18
69173;BME280;56280;49.662;8.408;2022-07-23T07:04:03;100809.09;;;24.25;67.50
69173;BME280;56280;49.662;8.408;2022-07-23T07:06:28;100831.72;;;24.66;65.36
69173;BME280;56280;49.662;8.408;2022-07-23T07:08:54;100831.84;;;24.31;66.10
69173;BME280;56280;49.662;8.408;2022-07-23T07:11:20;100831.44;;;24.14;65.80
69173;BME280;56280;49.662;8.408;2022-07-23T07:13:46;100812.38;;;23.94;65.72
69173;BME280;56280;49.662;8.408;2022-07-23T07:16:11;100842.88;;;23.54;66.73
69173;BME280;56280;49.662;8.408;2022-07-23T07:18:36;100835.69;;;23.33;67.38
69173;BME280;56280;49.662;8.408;2022-07-23T07:21:02;100845.75;;;23.46;67.47
69173;BME280;56280;49.662;8.408;2022-07-23T07:23:27;100817.72;;;23.25;67.01
69173;BME280;56280;49.662;8.408;2022-07-23T07:25:52;100839.63;;;23.79;67.05
69173;BME280;56280;49.662;8.408;2022-07-23T07:28:18;100835.19;;;24.19;65.49
69173;BME280;56280;49.662;8.408;2022-07-23T07:30:43;100828.50;;;24.09;64.13
69173;BME280;56280;49.662;8.408;2022-07-23T07:33:08;100840.16;;;23.96;65.62
69173;BME280;56280;49.662;8.408;2022-07-23T07:35:33;100856.63;;;23.94;66.71
69173;BME280;56280;49.662;8.408;2022-07-23T07:37:59;100851.28;;;23.66;64.98
69173;BME280;56280;49.662;8.408;2022-07-23T07:40:25;100845.81;;;23.59;65.87
69173;BME280;56280;49.662;8.408;2022-07-23T07:42:52;100850.16;;;23.54;66.24
69173;BME280;56280;49.662;8.408;2022-07-23T07:45:20;100847.38;;;23.40;66.93
69173;BME280;56280;49.662;8.408;2022-07-23T07:47:46;100857.56;;;23.32;68.52
69173;BME280;56280;49.662;8.408;2022-07-23T07:50:11;100857.56;;;23.32;67.94
69173;BME280;56280;49.662;8.408;2022-07-23T07:52:37;100853.03;;;22.82;69.47
69173;BME280;56280;49.662;8.408;2022-07-23T07:55:03;100868.63;;;22.80;69.22
69173;BME280;56280;49.662;8.408;2022-07-23T07:57:29;100853.25;;;22.87;68.66
69173;BME280;56280;49.662;8.408;2022-07-23T07:59:54;100881.84;;;23.18;68.02
69173;BME280;56280;49.662;8.408;2022-07-23T08:02:19;100864.06;;;23.37;66.92
69173;BME280;56280;49.662;8.408;2022-07-23T08:04:45;100865.38;;;23.48;67.95
69173;BME280;56280;49.662;8.408;2022-07-23T08:07:10;100894.47;;;23.67;67.31
69173;BME280;56280;49.662;8.408;2022-07-23T08:09:35;100878.16;;;23.61;66.47
69173;BME280;56280;49.662;8.408;2022-07-23T08:12:01;100854.34;;;23.56;66.15
69173;BME280;56280;49.662;8.408;2022-07-23T08:14:26;100894.16;;;23.49;67.43
69173;BME280;56280;49.662;8.408;2022-07-23T08:16:51;100873.84;;;23.32;67.52
69173;BME280;56280;49.662;8.408;2022-07-23T08:19:16;100876.38;;;23.75;67.03
69173;BME280;56280;49.662;8.408;2022-07-23T08:21:42;100875.38;;;24.78;62.54
69173;BME280;56280;49.662;8.408;2022-07-23T08:24:07;100867.59;;;25.41;61.72
69173;BME280;56280;49.662;8.408;2022-07-23T08:26:32;100879.00;;;25.77;59.71
69173;BME280;56280;49.662;8.408;2022-07-23T08:28:58;100884.22;;;25.78;58.88
69173;BME280;56280;49.662;8.408;2022-07-23T08:31:23;100889.94;;;26.15;58.99
69173;BME280;56280;49.662;8.408;2022-07-23T08:33:48;100882.00;;;26.46;58.20
69173;BME280;56280;49.662;8.408;2022-07-23T08:36:16;100893.00;;;26.89;55.81
69173;BME280;56280;49.662;8.408;2022-07-23T08:38:45;100892.59;;;27.11;55.58
69173;BME280;56280;49.662;8.408;2022-07-23T08:41:10;100894.63;;;27.59;55.33
69173;BME280;56280;49.662;8.408;2022-07-23T08:43:35;100880.03;;;27.54;53.46
69173;BME280;56280;49.662;8.408;2022-07-23T08:46:02;100882.44;;;27.43;54.11
69173;BME280;56280;49.662;8.408;2022-07-23T08:48:30;100894.53;;;26.47;54.46
69173;BME280;56280;49.662;8.408;2022-07-23T08:50:58;100890.81;;;26.09;56.84
69173;BME280;56280;49.662;8.408;2022-07-23T08:53:25;100895.84;;;25.40;57.47
69173;BME280;56280;49.662;8.408;2022-07-23T08:55:53;100887.50;;;25.15;59.74
69173;BME280;56280;49.662;8.408;2022-07-23T08:58:20;100888.97;;;25.31;58.23
69173;BME280;56280;49.662;8.408;2022-07-23T09:00:47;100889.75;;;26.10;57.00
69173;BME280;56280;49.662;8.408;2022-07-23T09:03:24;100900.66;;;26.81;55.80
69173;BME280;56280;49.662;8.408;2022-07-23T09:05:51;100899.81;;;27.24;53.60
69173;BME280;56280;49.662;8.408;2022-07-23T09:08:21;100880.41;;;27.76;53.18
69173;BME280;56280;49.662;8.408;2022-07-23T09:10:56;100889.78;;;28.29;52.04
69173;BME280;56280;49.662;8.408;2022-07-23T09:15:53;100878.22;;;28.15;51.50
69173;BME280;56280;49.662;8.408;2022-07-23T09:18:18;100873.47;;;27.18;53.14
69173;BME280;56280;49.662;8.408;2022-07-23T09:20:44;100881.00;;;26.72;54.52
69173;BME280;56280;49.662;8.408;2022-07-23T09:23:09;100853.13;;;26.38;55.70
69173;BME280;56280;49.662;8.408;2022-07-23T09:25:35;100877.06;;;26.68;54.86
69173;BME280;56280;49.662;8.408;2022-07-23T09:28:01;100881.19;;;26.38;53.63
69173;BME280;56280;49.662;8.408;2022-07-23T09:30:32;100880.03;;;26.53;54.66
69173;BME280;56280;49.662;8.408;2022-07-23T09:33:10;100877.47;;;27.15;52.03
69173;BME280;56280;49.662;8.408;2022-07-23T09:35:55;100865.00;;;27.44;51.23
69173;BME280;56280;49.662;8.408;2022-07-23T09:38:23;100873.09;;;28.07;51.65
69173;BME280;56280;49.662;8.408;2022-07-23T09:41:11;100878.38;;;28.32;49.35
69173;BME280;56280;49.662;8.408;2022-07-23T09:43:36;100874.78;;;28.50;49.77
69173;BME280;56280;49.662;8.408;2022-07-23T09:46:22;100872.56;;;28.28;48.92
69173;BME280;56280;49.662;8.408;2022-07-23T09:48:52;100865.84;;;28.54;48.10
69173;BME280;56280;49.662;8.408;2022-07-23T09:51:18;100871.38;;;28.78;49.23
69173;BME280;56280;49.662;8.408;2022-07-23T09:54:02;100876.28;;;29.12;49.09
69173;BME280;56280;49.662;8.408;2022-07-23T09:56:28;100886.00;;;27.99;49.51
69173;BME280;56280;49.662;8.408;2022-07-23T09:58:54;100864.75;;;26.84;52.01
69173;BME280;56280;49.662;8.408;2022-07-23T10:01:49;100885.22;;;26.68;53.50
69173;BME280;56280;49.662;8.408;2022-07-23T10:04:15;100881.63;;;25.97;54.61
69173;BME280;56280;49.662;8.408;2022-07-23T10:06:41;100848.28;;;26.15;54.05
69173;BME280;56280;49.662;8.408;2022-07-23T10:09:10;100879.59;;;26.88;52.08
69173;BME280;56280;49.662;8.408;2022-07-23T10:11:37;100880.22;;;26.58;53.67
69173;BME280;56280;49.662;8.408;2022-07-23T10:14:03;100876.34;;;27.23;51.50
69173;BME280;56280;49.662;8.408;2022-07-23T10:16:30;100881.00;;;27.78;51.10
69173;BME280;56280;49.662;8.408;2022-07-23T10:18:56;100877.91;;;27.12;51.72
69173;BME280;56280;49.662;8.408;2022-07-23T10:21:25;100870.41;;;26.25;52.99
69173;BME280;56280;49.662;8.408;2022-07-23T10:24:21;100882.91;;;26.33;53.17
69173;BME280;56280;49.662;8.408;2022-07-23T10:27:02;100876.00;;;26.94;51.53
69173;BME280;56280;49.662;8.408;2022-07-23T10:32:34;100877.69;;;27.39;51.50
69173;BME280;56280;49.662;8.408;2022-07-23T10:35:16;100871.31;;;27.63;51.46
69173;BME280;56280;49.662;8.408;2022-07-23T10:37:47;100870.50;;;27.93;50.23
69173;BME280;56280;49.662;8.408;2022-07-23T10:40:19;100880.97;;;28.15;49.48
69173;BME280;56280;49.662;8.408;2022-07-23T10:42:48;100869.84;;;28.28;47.81
69173;BME280;56280;49.662;8.408;2022-07-23T10:47:54;100851.34;;;28.00;47.16
69173;BME280;56280;49.662;8.408;2022-07-23T10:50:24;100870.59;;;28.05;47.97
69173;BME280;56280;49.662;8.408;2022-07-23T10:57:56;100857.56;;;27.89;48.45
69173;BME280;56280;49.662;8.408;2022-07-23T11:00:23;100868.66;;;27.38;51.38
69173;BME280;56280;49.662;8.408;2022-07-23T11:02:51;100856.28;;;27.54;50.78
69173;BME280;56280;49.662;8.408;2022-07-23T11:05:19;100822.78;;;27.10;50.13
69173;BME280;56280;49.662;8.408;2022-07-23T11:13:49;100871.78;;;25.96;54.93
69173;BME280;56280;49.662;8.408;2022-07-23T11:16:20;100857.00;;;26.55;52.70
69173;BME280;56280;49.662;8.408;2022-07-23T11:18:58;100867.28;;;26.53;51.92
69173;BME280;56280;49.662;8.408;2022-07-23T11:32:05;100853.75;;;26.72;51.94
69173;BME280;56280;49.662;8.408;2022-07-23T11:34:38;100851.63;;;26.74;51.33
69173;BME280;56280;49.662;8.408;2022-07-23T11:37:06;100840.72;;;26.74;50.82
69173;BME280;56280;49.662;8.408;2022-07-23T11:39:33;100846.25;;;27.11;50.70
69173;BME280;56280;49.662;8.408;2022-07-23T11:42:00;100842.16;;;27.02;50.00
69173;BME280;56280;49.662;8.408;2022-07-23T11:44:27;100846.47;;;26.59;51.52
69173;BME280;56280;49.662;8.408;2022-07-23T11:47:00;100849.41;;;26.64;52.70
69173;BME280;56280;49.662;8.408;2022-07-23T11:49:26;100816.94;;;25.99;53.31
69173;BME280;56280;49.662;8.408;2022-07-23T11:52:12;100841.03;;;25.95;56.89
69173;BME280;56280;49.662;8.408;2022-07-23T11:54:48;100825.13;;;25.85;52.84
69173;BME280;56280;49.662;8.408;2022-07-23T11:57:14;100831.88;;;26.22;51.87
69173;BME280;56280;49.662;8.408;2022-07-23T11:59:40;100822.63;;;26.54;51.38
69173;BME280;56280;49.662;8.408;2022-07-23T12:02:06;100832.03;;;26.59;52.18
69173;BME280;56280;49.662;8.408;2022-07-23T12:04:46;100832.66;;;26.86;51.13
69173;BME280;56280;49.662;8.408;2022-07-23T12:07:34;100828.38;;;27.15;49.63
69173;BME280;56280;49.662;8.408;2022-07-23T12:10:04;100816.34;;;27.41;49.94
69173;BME280;56280;49.662;8.408;2022-07-23T12:12:41;100826.50;;;27.53;46.92
69173;BME280;56280;49.662;8.408;2022-07-23T12:15:07;100802.25;;;27.63;49.15
69173;BME280;56280;49.662;8.408;2022-07-23T12:17:35;100826.09;;;27.68;47.48
69173;BME280;56280;49.662;8.408;2022-07-23T12:20:04;100817.75;;;27.81;48.47
69173;BME280;56280;49.662;8.408;2022-07-23T12:22:41;100809.66;;;27.74;48.86
69173;BME280;56280;49.662;8.408;2022-07-23T12:25:10;100814.22;;;27.62;48.42
69173;BME280;56280;49.662;8.408;2022-07-23T12:27:36;100809.16;;;27.47;48.28
69173;BME280;56280;49.662;8.408;2022-07-23T12:30:21;100832.84;;;27.09;48.46
69173;BME280;56280;49.662;8.408;2022-07-23T12:32:49;100827.34;;;27.16;48.35
69173;BME280;56280;49.662;8.408;2022-07-23T12:35:15;100825.44;;;27.35;48.30
69173;BME280;56280;49.662;8.408;2022-07-23T12:37:42;100797.94;;;27.18;48.21
69173;BME280;56280;49.662;8.408;2022-07-23T12:42:54;100808.97;;;27.79;47.04
69173;BME280;56280;49.662;8.408;2022-07-23T12:45:20;100818.84;;;28.10;45.98
69173;BME280;56280;49.662;8.408;2022-07-23T12:48:04;100830.97;;;28.14;47.29
69173;BME280;56280;49.662;8.408;2022-07-23T12:50:43;100831.41;;;27.25;47.35
69173;BME280;56280;49.662;8.408;2022-07-23T12:53:22;100820.91;;;26.85;48.11
69173;BME280;56280;49.662;8.408;2022-07-23T12:56:04;100832.44;;;26.87;48.64
69173;BME280;56280;49.662;8.408;2022-07-23T12:58:52;100839.34;;;26.58;50.47
69173;BME280;56280;49.662;8.408;2022-07-23T13:04:09;100828.94;;;26.80;49.88
69173;BME280;56280;49.662;8.408;2022-07-23T13:09:06;100813.97;;;26.89;48.82
69173;BME280;56280;49.662;8.408;2022-07-23T13:11:32;100816.19;;;27.18;48.92
69173;BME280;56280;49.662;8.408;2022-07-23T13:13:58;100806.25;;;27.23;48.12
69173;BME280;56280;49.662;8.408;2022-07-23T13:16:27;100822.00;;;27.03;47.97
69173;BME280;56280;49.662;8.408;2022-07-23T13:18:53;100797.84;;;27.06;48.29
69173;BME280;56280;49.662;8.408;2022-07-23T13:21:19;100816.81;;;27.38;48.02
69173;BME280;56280;49.662;8.408;2022-07-23T13:23:44;100821.34;;;27.63;47.79
69173;BME280;56280;49.662;8.408;2022-07-23T13:26:09;100807.53;;;27.76;47.65
69173;BME280;56280;49.662;8.408;2022-07-23T13:28:35;100814.00;;;27.45;46.42